Data for 05/28/2016

Time Sea-Level Adjusted Pressure Absolute Pressure Temperature Relative Humidity Dew Point   
(mb) (inHg) (mb) (inHg) (C) (F) (%) (C) (F)
00:05 1017 30.03 846 24.98 6.5 43.8 87 4.5 40
00:10 1017 30.03 846 24.98 6.6 43.8 86 4.4 39.9
00:15 1017 30.03 846 24.98 6.6 43.9 86 4.5 40
00:20 1017 30.03 846 24.98 6.6 43.9 86 4.4 39.9
00:25 1017 30.03 846 24.98 6.5 43.8 86 4.4 39.9
00:30 1017 30.03 846 24.98 6.5 43.7 86 4.3 39.7
00:35 1017 30.03 846 24.98 6.4 43.6 86 4.3 39.7
00:40 1017 30.03 846 24.98 6.4 43.5 86 4.3 39.7
00:45 1017 30.03 846 24.98 6.4 43.4 87 4.3 39.8
00:50 1017 30.03 846 24.98 6.3 43.4 86 4.2 39.6
00:55 1017 30.03 846 24.98 6.4 43.4 88 4.5 40.1
01:00 1017 30.03 846 24.98 6.4 43.5 87 4.3 39.8
01:05 1017 30.03 846 24.98 6.4 43.5 87 4.3 39.7
01:10 1017 30.03 846 24.98 6.4 43.5 87 4.3 39.8
01:15 1017 30.03 846 24.98 6.5 43.6 87 4.4 40
01:20 1017 30.03 846 24.98 6.5 43.7 88 4.6 40.2
01:25 1017 30.03 846 24.98 6.4 43.5 88 4.5 40.1
01:30 1017 30.03 846 24.98 6.3 43.3 88 4.5 40
01:35 1017 30.03 846 24.98 6.2 43.2 86 4.1 39.3
01:40 1017 30.03 846 24.98 6.3 43.3 86 4.1 39.4
01:45 1017 30.03 846 24.98 6.4 43.6 85 4.1 39.4
01:50 1017 30.03 846 24.98 6.4 43.6 86 4.2 39.6
01:55 1017 30.03 847 25.01 6.4 43.6 85 4.2 39.5
02:00 1017 30.03 847 25.01 6.4 43.6 86 4.3 39.8
02:05 1017 30.03 847 25.01 6.4 43.6 86 4.3 39.8
02:10 1017 30.03 847 25.01 6.5 43.7 86 4.3 39.8
02:15 1017 30.03 847 25.01 6.4 43.6 85 4.2 39.5
02:20 1017 30.03 847 25.01 6.5 43.6 86 4.3 39.8
02:25 1017 30.03 846 24.98 6.5 43.7 86 4.4 39.9
02:30 1017 30.03 846 24.98 6.4 43.6 87 4.4 39.9
02:35 1017 30.03 846 24.98 6.5 43.6 85 4.1 39.4
02:40 1017 30.03 846 24.98 6.5 43.7 82 3.7 38.7
02:45 1017 30.03 846 24.98 6.5 43.7 82 3.8 38.8
02:50 1017 30.03 846 24.98 6.6 43.8 84 4 39.3
02:55 1017 30.03 846 24.98 6.5 43.8 84 4.1 39.4
03:00 1017 30.03 846 24.98 6.5 43.7 85 4.2 39.6
03:05 1017 30.03 846 24.98 6.4 43.6 84 3.9 39.1
03:10 1017 30.03 846 24.98 6.4 43.6 85 4 39.2
03:15 1017 30.03 846 24.98 6.4 43.6 83 3.7 38.7
03:20 1017 30.03 846 24.98 6.5 43.6 83 3.7 38.7
03:25 1017 30.03 846 24.98 6.5 43.7 82 3.7 38.7
03:30 1017 30.03 846 24.98 6.4 43.5 82 3.6 38.4
03:35 1017 30.03 846 24.98 6.4 43.5 83 3.8 38.8
03:40 1017 30.03 846 24.98 6.4 43.5 83 3.6 38.5
03:45 1017 30.03 846 24.98 6.4 43.5 81 3.4 38.1
03:50 1017 30.03 846 24.98 6.5 43.8 81 3.5 38.2
03:55 1017 30.03 846 24.98 6.7 44 77 2.8 37.1
04:00 1017 30.03 846 24.98 6.8 44.2 77 3 37.3
04:05 1017 30.03 846 24.98 6.7 44.1 78 3.2 37.7
04:10 1017 30.03 846 24.98 6.5 43.8 79 3.2 37.8
04:15 1017 30.03 846 24.98 6.4 43.5 81 3.4 38
04:20 1017 30.03 846 24.98 6.2 43.2 81 3.3 37.9
04:25 1017 30.03 846 24.98 6.2 43.2 80 3.1 37.6
04:30 1017 30.03 846 24.98 6.2 43.1 80 3 37.4
04:35 1017 30.03 846 24.98 6.2 43.1 79 2.8 37.1
04:40 1017 30.03 847 25.01 6.1 43.1 80 2.9 37.2
04:45 1017 30.03 847 25.01 6 42.9 81 2.9 37.3
04:50 1017 30.03 847 25.01 5.9 42.6 81 3 37.3
04:55 1018 30.06 847 25.01 5.7 42.2 83 3 37.3
05:00 1018 30.06 847 25.01 5.6 42.1 83 3 37.4
05:05 1018 30.06 847 25.01 5.7 42.2 83 3.1 37.6
05:10 1018 30.06 847 25.01 5.7 42.3 83 3.1 37.6
05:15 1018 30.06 847 25.01 5.8 42.4 84 3.2 37.8
05:20 1018 30.06 847 25.01 5.8 42.4 83 3.1 37.7
05:25 1018 30.06 847 25.01 6 42.9 80 2.8 37.1
05:30 1018 30.06 847 25.01 6.5 43.7 76 2.6 36.8
05:35 1018 30.06 847 25.01 6.7 44 73 2.2 35.9
05:40 1018 30.06 847 25.01 6.8 44.2 73 2.3 36.1
05:45 1018 30.06 847 25.01 7.1 44.8 70 2 35.6
05:50 1018 30.06 847 25.01 7.3 45.1 71 2.5 36.4
05:55 1018 30.06 847 25.01 7.3 45.1 72 2.5 36.5
06:00 1018 30.06 847 25.01 7.2 44.9 72 2.4 36.4
06:05 1018 30.06 847 25.01 7 44.6 74 2.7 36.8
06:10 1018 30.06 847 25.01 7.1 44.8 73 2.6 36.8
06:15 1018 30.06 847 25.01 7.3 45.1 71 2.3 36.1
06:20 1018 30.06 847 25.01 7.3 45.1 70 2.3 36.1
06:25 1018 30.06 847 25.01 7.1 44.8 70 2 35.7
06:30 1018 30.06 847 25.01 6.9 44.4 70 1.9 35.4
06:35 1018 30.06 847 25.01 7 44.6 72 2.3 36.1
06:40 1018 30.06 847 25.01 7 44.5 71 2.2 35.9
06:45 1018 30.06 847 25.01 7 44.6 73 2.5 36.5
06:50 1018 30.06 847 25.01 7.1 44.9 73 2.6 36.7
06:55 1018 30.06 847 25.01 7.2 44.9 74 2.9 37.2
07:00 1018 30.06 847 25.01 7.4 45.4 72 2.7 36.8
07:05 1018 30.06 847 25.01 7.4 45.4 73 2.9 37.2
07:10 1018 30.06 847 25.01 7.3 45.1 74 3 37.3
07:15 1018 30.06 847 25.01 7.5 45.5 74 3.2 37.7
07:20 1018 30.06 847 25.01 7.6 45.7 73 3.1 37.6
07:25 1018 30.06 847 25.01 7.7 45.8 72 2.9 37.3
07:30 1018 30.06 847 25.01 7.7 45.8 70 2.6 36.8
07:35 1018 30.06 848 25.04 7.8 46 69 2.5 36.5
07:40 1018 30.06 848 25.04 8 46.3 70 2.9 37.3
07:45 1018 30.06 848 25.04 8.2 46.7 70 3.1 37.6
07:50 1018 30.06 848 25.04 8.5 47.3 70 3.4 38.2
07:55 1018 30.06 848 25.04 8.6 47.4 72 3.9 38.9
08:00 1018 30.06 848 25.04 8.6 47.4 72 3.7 38.7
08:05 1018 30.06 848 25.04 8.7 47.6 72 4 39.1
08:10 1018 30.06 848 25.04 8.8 47.8 71 3.8 38.8
08:15 1018 30.06 848 25.04 8.9 48.1 71 3.9 39
08:20 1018 30.06 848 25.04 9.2 48.5 71 4.2 39.6
08:25 1018 30.06 848 25.04 9.5 49.1 67 3.6 38.5
08:30 1018 30.06 848 25.04 9.8 49.6 69 4.3 39.8
08:35 1018 30.06 848 25.04 9.9 49.9 64 3.5 38.3
08:40 1018 30.06 848 25.04 10 50 65 3.7 38.7
08:45 1018 30.06 848 25.04 10.1 50.1 67 4.3 39.8
08:50 1018 30.06 848 25.04 9.8 49.6 68 4.2 39.5
08:55 1018 30.06 847 25.01 9.5 49 67 3.6 38.4
09:00 1018 30.06 848 25.04 9.3 48.7 68 3.7 38.7
09:05 1018 30.06 848 25.04 9.5 49.2 66 3.5 38.2
09:10 1018 30.06 848 25.04 10.1 50.2 63 3.4 38.1
09:15 1018 30.06 848 25.04 10.4 50.7 60 3 37.4
09:20 1018 30.06 848 25.04 10.5 50.8 62 3.5 38.3
09:25 1018 30.06 848 25.04 10.2 50.4 59 2.5 36.5
09:30 1018 30.06 848 25.04 10.5 50.9 57 2.3 36.1
09:35 1018 30.06 848 25.04 10.9 51.5 55 2.2 35.9
09:40 1018 30.06 848 25.04 11.3 52.3 53 2 35.6
09:45 1018 30.06 848 25.04 11.5 52.7 55 2.9 37.3
09:50 1018 30.06 848 25.04 11.4 52.4 57 3.1 37.5
09:55 1018 30.06 848 25.04 10.9 51.6 57 2.7 36.8
10:00 1018 30.06 848 25.04 10.8 51.5 57 2.7 36.8
10:05 1018 30.06 848 25.04 10.7 51.3 58 3 37.3
10:10 1019 30.09 848 25.04 10.4 50.7 60 3 37.3
10:15 1019 30.09 848 25.04 10.1 50.1 60 2.6 36.7
10:20 1019 30.09 848 25.04 10 50 60 2.6 36.7
10:25 1019 30.09 848 25.04 10.1 50.1 61 2.9 37.2
10:30 1019 30.09 848 25.04 10.3 50.5 60 2.9 37.3
10:35 1019 30.09 848 25.04 11.2 52.1 53 2.1 35.7
10:40 1019 30.09 848 25.04 11.8 53.3 50 1.7 35.1
10:45 1019 30.09 848 25.04 11.9 53.5 49 1.7 35
10:50 1019 30.09 848 25.04 11.9 53.4 49 1.6 34.9
10:55 1019 30.09 848 25.04 11.6 52.9 51 1.8 35.2
11:00 1019 30.09 848 25.04 11.9 53.3 48 1.4 34.5
11:05 1019 30.09 848 25.04 12.3 54.1 49 2.1 35.7
11:10 1019 30.09 848 25.04 12.6 54.7 47 1.6 34.9
11:15 1019 30.09 848 25.04 12.5 54.6 47 1.6 34.9
11:20 1019 30.09 848 25.04 11.9 53.5 49 1.7 35.1
11:25 1019 30.09 848 25.04 12.2 54 48 1.7 35
11:30 1019 30.09 848 25.04 12.5 54.4 48 1.8 35.2
11:35 1018 30.06 848 25.04 12.9 55.2 46 1.6 35
11:40 1018 30.06 848 25.04 12.7 54.9 48 2.1 35.8
11:45 1018 30.06 848 25.04 13.1 55.6 46 1.9 35.4
11:50 1018 30.06 848 25.04 13.6 56.5 44 1.8 35.2
11:55 1019 30.09 848 25.04 13.5 56.2 45 2 35.6
12:00 1019 30.09 848 25.04 13.2 55.8 46 1.9 35.4
12:05 1019 30.09 848 25.04 13.2 55.7 45 1.5 34.7
12:10 1018 30.06 848 25.04 13.3 55.9 45 1.8 35.2
12:15 1018 30.06 848 25.04 12.9 55.1 46 1.6 34.8
12:20 1018 30.06 848 25.04 14 57.2 42 1.4 34.5
12:25 1018 30.06 848 25.04 14.4 57.9 41 1.4 34.5
12:30 1018 30.06 848 25.04 14.3 57.7 43 1.9 35.4
12:35 1018 30.06 848 25.04 14.2 57.6 44 2.3 36.1
12:40 1018 30.06 847 25.01 13.9 57 46 2.5 36.5
12:45 1018 30.06 847 25.01 13.3 56 47 2.4 36.2
12:50 1018 30.06 847 25.01 12.7 54.9 49 2.2 36
12:55 1018 30.06 847 25.01 13.2 55.7 46 2 35.5
13:00 1018 30.06 847 25.01 14.3 57.7 43 2.1 35.8
13:05 1018 30.06 847 25.01 14.9 58.8 42 2.2 36
13:10 1018 30.06 847 25.01 15 58.9 41 1.8 35.3
13:15 1018 30.06 847 25.01 13.7 56.7 43 1.4 34.5
13:20 1018 30.06 847 25.01 13.8 56.9 45 2.1 35.7
13:25 1018 30.06 847 25.01 13.5 56.3 49 3.1 37.6
13:30 1018 30.06 847 25.01 12.9 55.2 52 3.4 38.2
13:35 1018 30.06 847 25.01 12.7 54.9 49 2.4 36.3
13:40 1018 30.06 847 25.01 13.3 55.9 48 2.6 36.7
13:45 1018 30.06 847 25.01 13.3 55.9 49 2.8 37
13:50 1018 30.06 847 25.01 14.2 57.6 44 2.2 36
13:55 1018 30.06 848 25.04 14.5 58.1 47 3.3 38
14:00 1018 30.06 848 25.04 14.8 58.6 44 2.8 37
14:05 1018 30.06 848 25.04 15.3 59.5 44 3.1 37.6
14:10 1018 30.06 847 25.01 15.6 60.1 44 3.4 38.2
14:15 1018 30.06 847 25.01 14.6 58.2 46 3.2 37.7
14:20 1018 30.06 847 25.01 13.4 56.2 49 2.9 37.2
14:25 1018 30.06 847 25.01 14.2 57.6 47 3 37.4
14:30 1018 30.06 847 25.01 14.7 58.4 45 3.1 37.6
14:35 1018 30.06 847 25.01 13.9 56.9 48 3 37.5
14:40 1018 30.06 847 25.01 13.9 57 47 2.9 37.2
14:45 1018 30.06 847 25.01 14.4 57.9 45 2.5 36.6
14:50 1018 30.06 847 25.01 14.4 57.8 47 3.3 38
14:55 1018 30.06 847 25.01 13.4 56.2 46 2.3 36.1
15:00 1018 30.06 847 25.01 13.6 56.5 46 2.4 36.3
15:05 1018 30.06 847 25.01 14.5 58 43 2.2 35.9
15:10 1018 30.06 847 25.01 14.9 58.7 41 1.8 35.2
15:15 1018 30.06 847 25.01 15.7 60.2 37 1.1 34
15:20 1018 30.06 847 25.01 15.5 60 37 1.1 34
15:25 1018 30.06 847 25.01 15.7 60.3 40 2.3 36.1
15:30 1018 30.06 847 25.01 15.8 60.5 38 1.8 35.2
15:35 1018 30.06 847 25.01 15.9 60.6 38 1.8 35.2
15:40 1018 30.06 847 25.01 16.5 61.7 39 2.5 36.5
15:45 1018 30.06 847 25.01 16.3 61.3 38 1.9 35.4
15:50 1018 30.06 847 25.01 16.8 62.2 38 2.6 36.7
15:55 1018 30.06 847 25.01 16.3 61.3 38 2 35.5
16:00 1018 30.06 847 25.01 16.3 61.3 38 1.9 35.5
16:05 1018 30.06 847 25.01 16.9 62.4 35 1.5 34.7
16:10 1018 30.06 847 25.01 17.4 63.4 35 1.8 35.3
16:15 1018 30.06 847 25.01 17 62.5 39 2.9 37.2
16:20 1018 30.06 847 25.01 15.3 59.6 41 2.3 36.1
16:25 1018 30.06 847 25.01 15.4 59.8 39 1.6 34.8
16:30 1018 30.06 847 25.01 16.1 61 39 2.3 36.2
16:35 1018 30.06 847 25.01 15.8 60.4 40 2.5 36.4
16:40 1018 30.06 847 25.01 15.1 59.2 41 2.1 35.7
16:45 1018 30.06 847 25.01 15.7 60.2 39 1.7 35.1
16:50 1018 30.06 847 25.01 16.1 61 39 2.3 36.1
16:55 1018 30.06 847 25.01 16.2 61.1 38 2.1 35.7
17:00 1018 30.06 847 25.01 16.2 61.1 38 1.8 35.3
17:05 1018 30.06 847 25.01 15.8 60.4 39 2.1 35.8
17:10 1018 30.06 847 25.01 15.9 60.6 37 1.2 34.1
17:15 1018 30.06 847 25.01 16.1 60.9 36 1.2 34.1
17:20 1018 30.06 847 25.01 15.8 60.4 37 1.4 34.5
17:25 1018 30.06 847 25.01 15.9 60.6 35 0.7 33.3
17:30 1018 30.06 847 25.01 15.5 59.8 39 1.8 35.2
17:35 1018 30.06 847 25.01 15.7 60.2 36 0.7 33.3
17:40 1018 30.06 847 25.01 16 60.8 36 0.9 33.7
17:45 1018 30.06 847 25.01 16.2 61.1 35 0.7 33.3
17:50 1018 30.06 847 25.01 16.5 61.7 35 1.2 34.2
17:55 1018 30.06 847 25.01 16.1 61 35 0.9 33.7
18:00 1018 30.06 847 25.01 16.1 60.9 36 1.1 34
18:05 1018 30.06 847 25.01 16 60.8 35 0.8 33.4
18:10 1018 30.06 847 25.01 15.8 60.4 35 0.4 32.7
18:15 1018 30.06 847 25.01 16 60.9 36 1 33.8
18:20 1018 30.06 847 25.01 15.8 60.4 37 1.2 34.1
18:25 1018 30.06 847 25.01 15.5 59.8 38 1.3 34.4
18:30 1018 30.06 847 25.01 15.5 59.8 38 1.4 34.5
18:35 1018 30.06 848 25.04 15.4 59.7 38 1.2 34.2
18:40 1018 30.06 848 25.04 15.2 59.3 40 1.8 35.2
18:45 1018 30.06 848 25.04 15 58.9 40 1.5 34.7
18:50 1018 30.06 848 25.04 14.9 58.9 40 1.6 34.8
18:55 1018 30.06 848 25.04 14.8 58.6 40 1.4 34.5
19:00 1018 30.06 848 25.04 14.8 58.7 39 1.1 34
19:05 1018 30.06 848 25.04 14.9 58.8 40 1.5 34.6
19:10 1018 30.06 848 25.04 14.8 58.6 40 1.5 34.7
19:15 1019 30.09 848 25.04 14.7 58.5 40 1.3 34.3
19:20 1019 30.09 848 25.04 14.5 58.2 41 1.7 35
19:25 1019 30.09 848 25.04 14.2 57.6 43 2 35.5
19:30 1019 30.09 848 25.04 14 57.2 44 1.9 35.5
19:35 1019 30.09 848 25.04 13.9 57.1 43 1.5 34.8
19:40 1019 30.09 848 25.04 13.9 57 44 1.8 35.2
19:45 1019 30.09 848 25.04 13.7 56.7 46 2.2 36
19:50 1019 30.09 848 25.04 13.6 56.4 47 2.4 36.3
19:55 1019 30.09 848 25.04 13.4 56.1 49 2.8 37.1
20:00 1019 30.09 848 25.04 13.1 55.6 50 2.9 37.2
20:05 1019 30.09 848 25.04 13 55.3 49 2.7 36.9
20:10 1019 30.09 848 25.04 12.8 55.1 51 3 37.4
20:15 1019 30.09 848 25.04 12.7 54.8 53 3.4 38.2
20:20 1019 30.09 848 25.04 12.3 54.1 59 4.5 40.1
20:25 1019 30.09 848 25.04 11.7 53.1 62 4.7 40.4
20:30 1019 30.09 848 25.04 11.2 52.1 65 4.9 40.8
20:35 1019 30.09 848 25.04 10.7 51.2 67 4.9 40.9
20:40 1019 30.09 848 25.04 10.5 50.8 69 5 40.9
20:45 1019 30.09 848 25.04 10.2 50.4 70 5 40.9
20:50 1019 30.09 848 25.04 10 49.9 71 4.9 40.9
20:55 1019 30.09 848 25.04 9.8 49.6 71 4.9 40.8
21:00 1019 30.09 848 25.04 9.6 49.3 72 4.9 40.7
21:05 1019 30.09 848 25.04 9.4 48.9 72 4.6 40.2
21:10 1019 30.09 849 25.07 9.1 48.4 71 4.2 39.5
21:15 1019 30.09 849 25.07 8.8 47.9 71 3.9 39
21:20 1019 30.09 849 25.07 8.8 47.8 71 3.8 38.9
21:25 1019 30.09 849 25.07 9 48.2 71 4 39.3
21:30 1019 30.09 849 25.07 8.9 48.1 72 4.1 39.4
21:35 1019 30.09 849 25.07 8.9 48 72 4.2 39.5
21:40 1019 30.09 849 25.07 8.9 48 72 4.1 39.4
21:45 1019 30.09 849 25.07 9 48.2 72 4.2 39.5
21:50 1019 30.09 849 25.07 8.9 48 72 4.2 39.6
21:55 1019 30.09 849 25.07 8.7 47.6 73 4.1 39.4
22:00 1019 30.09 849 25.07 8.6 47.4 74 4.1 39.5
22:05 1020 30.12 849 25.07 8.4 47.1 74 4.1 39.3
22:10 1020 30.12 849 25.07 8.3 46.9 74 3.9 39
22:15 1020 30.12 849 25.07 8.2 46.8 74 3.9 39.1
22:20 1020 30.12 849 25.07 8.1 46.6 75 4 39.3
22:25 1020 30.12 849 25.07 8 46.5 75 3.9 39.1
22:30 1020 30.12 849 25.07 7.9 46.2 74 3.5 38.4
22:35 1020 30.12 849 25.07 7.9 46.2 75 3.7 38.7
22:40 1020 30.12 849 25.07 7.8 46 74 3.4 38.2
22:45 1020 30.12 849 25.07 7.9 46.3 74 3.7 38.6
22:50 1020 30.12 849 25.07 7.9 46.3 75 3.8 38.9
22:55 1020 30.12 849 25.07 7.9 46.3 75 3.7 38.7
23:00 1020 30.12 849 25.07 8 46.4 75 3.8 38.9
23:05 1020 30.12 849 25.07 7.9 46.2 74 3.6 38.5
23:10 1020 30.12 849 25.07 7.9 46.1 75 3.6 38.5
23:15 1020 30.12 849 25.07 7.6 45.7 76 3.7 38.6
23:20 1020 30.12 849 25.07 7.4 45.3 74 3.1 37.6
23:25 1020 30.12 849 25.07 7.6 45.7 73 3 37.4
23:30 1020 30.12 849 25.07 7.8 46 74 3.5 38.2
23:35 1020 30.12 849 25.07 7.7 45.8 75 3.5 38.3
23:40 1020 30.12 849 25.07 7.7 45.8 74 3.3 38
23:45 1020 30.12 849 25.07 7.8 46 73 3.2 37.8
23:50 1020 30.12 849 25.07 7.9 46.2 73 3.3 38
23:55 1020 30.12 849 25.07 7.9 46.2 73 3.4 38.1
24:00 1020 30.12 849 25.07 7.7 45.9 74 3.3 38